sensor_id;sensor_type;location;lat;lon;timestamp;pressure;altitude;pressure_sealevel;temperature;humidity
20897;BME280;10608;42.600;23.398;2023-12-20T00:01:16;35249.31;;;-138.15;89.83
20897;BME280;10608;42.600;23.398;2023-12-20T00:03:42;35406.44;;;-138.15;89.23
20897;BME280;10608;42.600;23.398;2023-12-20T00:06:07;35247.38;;;-138.15;88.65
20897;BME280;10608;42.600;23.398;2023-12-20T00:08:33;35496.75;;;-138.15;88.23
20897;BME280;10608;42.600;23.398;2023-12-20T00:10:58;35547.81;;;-138.15;87.32
20897;BME280;10608;42.600;23.398;2023-12-20T00:13:23;35630.31;;;-138.15;86.48
20897;BME280;10608;42.600;23.398;2023-12-20T00:15:49;35712.78;;;-138.15;85.69
20897;BME280;10608;42.600;23.398;2023-12-20T00:18:14;35740.28;;;-138.15;85.65
20897;BME280;10608;42.600;23.398;2023-12-20T00:20:40;35771.72;;;-138.15;85.41
20897;BME280;10608;42.600;23.398;2023-12-20T00:23:05;35779.56;;;-138.15;85.91
20897;BME280;10608;42.600;23.398;2023-12-20T00:25:31;35793.31;;;-138.15;86.43
20897;BME280;10608;42.600;23.398;2023-12-20T00:27:56;35787.41;;;-138.15;87.61
20897;BME280;10608;42.600;23.398;2023-12-20T00:30:21;35765.81;;;-138.15;86.80
20897;BME280;10608;42.600;23.398;2023-12-20T00:32:47;35807.06;;;-138.15;86.82
20897;BME280;10608;42.600;23.398;2023-12-20T00:35:13;35850.28;;;-138.15;86.47
20897;BME280;10608;42.600;23.398;2023-12-20T00:37:39;35846.34;;;-138.15;86.62
20897;BME280;10608;42.600;23.398;2023-12-20T00:40:05;35893.47;;;-138.15;86.45
20897;BME280;10608;42.600;23.398;2023-12-20T00:42:31;35889.56;;;-138.15;85.93
20897;BME280;10608;42.600;23.398;2023-12-20T00:44:57;35903.31;;;-138.15;85.64
20897;BME280;10608;42.600;23.398;2023-12-20T00:47:22;35924.91;;;-138.15;85.86
20897;BME280;10608;42.600;23.398;2023-12-20T00:49:48;35948.47;;;-138.15;85.39
20897;BME280;10608;42.600;23.398;2023-12-20T00:52:13;35936.69;;;-138.15;86.08
20897;BME280;10608;42.600;23.398;2023-12-20T00:54:39;35948.47;;;-138.15;86.10
20897;BME280;10608;42.600;23.398;2023-12-20T00:57:04;35915.09;;;-138.15;86.12
20897;BME280;10608;42.600;23.398;2023-12-20T00:59:30;35968.13;;;-138.15;86.11
20897;BME280;10608;42.600;23.398;2023-12-20T01:01:55;35948.47;;;-138.15;85.60
20897;BME280;10608;42.600;23.398;2023-12-20T01:23:37;35948.47;;;-138.15;85.75
20897;BME280;10608;42.600;23.398;2023-12-20T01:26:02;35952.41;;;-138.15;85.58
20897;BME280;10608;42.600;23.398;2023-12-20T01:28:29;35975.97;;;-138.15;86.03
20897;BME280;10608;42.600;23.398;2023-12-20T01:30:55;35972.03;;;-138.15;86.92
20897;BME280;10608;42.600;23.398;2023-12-20T01:33:20;35952.41;;;-138.15;87.54
20897;BME280;10608;42.600;23.398;2023-12-20T01:35:45;35950.44;;;-138.15;88.16
20897;BME280;10608;42.600;23.398;2023-12-20T01:38:11;35952.41;;;-138.15;87.50
20897;BME280;10608;42.600;23.398;2023-12-20T01:40:36;35981.88;;;-138.15;87.20
20897;BME280;10608;42.600;23.398;2023-12-20T01:43:07;36025.06;;;-138.15;86.78
20897;BME280;10608;42.600;23.398;2023-12-20T01:45:33;35975.97;;;-138.15;87.17
20897;BME280;10608;42.600;23.398;2023-12-20T01:47:59;36003.47;;;-138.15;87.55
20897;BME280;10608;42.600;23.398;2023-12-20T01:50:25;35944.53;;;-138.15;88.93
20897;BME280;10608;42.600;23.398;2023-12-20T01:52:51;35889.56;;;-138.15;90.21
20897;BME280;10608;42.600;23.398;2023-12-20T01:55:20;35864.03;;;-138.15;90.98
20897;BME280;10608;42.600;23.398;2023-12-20T01:57:46;35826.69;;;-138.15;91.80
20897;BME280;10608;42.600;23.398;2023-12-20T02:00:13;35852.22;;;-138.15;91.73
20897;BME280;10608;42.600;23.398;2023-12-20T02:02:40;35826.69;;;-138.15;92.47
20897;BME280;10608;42.600;23.398;2023-12-20T02:05:09;35756.00;;;-138.15;92.17
20897;BME280;10608;42.600;23.398;2023-12-20T02:07:34;35759.94;;;-138.15;92.16
20897;BME280;10608;42.600;23.398;2023-12-20T02:10:03;35750.09;;;-138.15;92.24
20897;BME280;10608;42.600;23.398;2023-12-20T02:12:31;35763.84;;;-138.15;92.01
20897;BME280;10608;42.600;23.398;2023-12-20T02:14:57;35740.28;;;-138.15;92.38
20897;BME280;10608;42.600;23.398;2023-12-20T02:17:23;35740.28;;;-138.15;92.14
20897;BME280;10608;42.600;23.398;2023-12-20T02:19:49;35740.28;;;-138.15;92.24
20897;BME280;10608;42.600;23.398;2023-12-20T02:22:15;35754.03;;;-138.15;92.11
20897;BME280;10608;42.600;23.398;2023-12-20T02:24:40;35748.13;;;-138.15;91.98
20897;BME280;10608;42.600;23.398;2023-12-20T02:27:07;35761.88;;;-138.15;91.11
20897;BME280;10608;42.600;23.398;2023-12-20T02:29:33;35775.63;;;-138.15;90.54
20897;BME280;10608;42.600;23.398;2023-12-20T02:31:59;35799.22;;;-138.15;89.75
20897;BME280;10608;42.600;23.398;2023-12-20T02:34:24;35846.34;;;-138.15;89.07
20897;BME280;10608;42.600;23.398;2023-12-20T02:36:49;35871.88;;;-138.15;88.63
20897;BME280;10608;42.600;23.398;2023-12-20T02:39:16;35838.47;;;-138.15;88.56
20897;BME280;10608;42.600;23.398;2023-12-20T02:41:41;35885.63;;;-138.15;88.86
20897;BME280;10608;42.600;23.398;2023-12-20T02:44:07;35883.66;;;-138.15;88.14
20897;BME280;10608;42.600;23.398;2023-12-20T02:46:32;35928.84;;;-138.15;87.67
20897;BME280;10608;42.600;23.398;2023-12-20T02:48:57;35913.13;;;-138.15;86.82
20897;BME280;10608;42.600;23.398;2023-12-20T02:51:23;35995.59;;;-138.15;86.31
20897;BME280;10608;42.600;23.398;2023-12-20T02:53:48;36052.56;;;-138.15;85.49
20897;BME280;10608;42.600;23.398;2023-12-20T02:56:13;36089.88;;;-138.15;84.26
20897;BME280;10608;42.600;23.398;2023-12-20T02:58:40;36125.25;;;-138.15;83.57
20897;BME280;10608;42.600;23.398;2023-12-20T03:01:05;36178.28;;;-138.15;83.88
20897;BME280;10608;42.600;23.398;2023-12-20T03:03:31;36164.53;;;-138.15;83.85
20897;BME280;10608;42.600;23.398;2023-12-20T03:05:56;36176.31;;;-138.15;83.68
20897;BME280;10608;42.600;23.398;2023-12-20T03:08:22;36195.94;;;-138.15;83.73
20897;BME280;10608;42.600;23.398;2023-12-20T03:10:47;36205.78;;;-138.15;84.23
20897;BME280;10608;42.600;23.398;2023-12-20T03:13:12;36158.63;;;-138.15;85.16
20897;BME280;10608;42.600;23.398;2023-12-20T03:15:38;36168.44;;;-138.15;85.73
20897;BME280;10608;42.600;23.398;2023-12-20T03:18:03;36144.88;;;-138.15;85.92
20897;BME280;10608;42.600;23.398;2023-12-20T03:20:29;36129.16;;;-138.15;86.96
20897;BME280;10608;42.600;23.398;2023-12-20T03:22:58;36140.97;;;-138.15;87.09
20897;BME280;10608;42.600;23.398;2023-12-20T03:25:23;36097.75;;;-138.15;86.94
20897;BME280;10608;42.600;23.398;2023-12-20T03:27:49;36097.75;;;-138.15;86.93
20897;BME280;10608;42.600;23.398;2023-12-20T03:30:14;36115.41;;;-138.15;87.16
20897;BME280;10608;42.600;23.398;2023-12-20T03:32:39;36078.09;;;-138.15;87.02
20897;BME280;10608;42.600;23.398;2023-12-20T03:35:05;36121.31;;;-138.15;86.85
20897;BME280;10608;42.600;23.398;2023-12-20T03:37:31;36140.97;;;-138.15;86.77
20897;BME280;10608;42.600;23.398;2023-12-20T03:39:56;36140.97;;;-138.15;86.02
20897;BME280;10608;42.600;23.398;2023-12-20T03:42:22;36199.88;;;-138.15;85.25
20897;BME280;10608;42.600;23.398;2023-12-20T03:44:47;36211.66;;;-138.15;84.38
20897;BME280;10608;42.600;23.398;2023-12-20T03:47:12;36247.03;;;-138.15;83.98
20897;BME280;10608;42.600;23.398;2023-12-20T03:49:38;36231.31;;;-138.15;83.43
20897;BME280;10608;42.600;23.398;2023-12-20T03:52:04;36254.88;;;-138.15;83.45
20897;BME280;10608;42.600;23.398;2023-12-20T03:54:30;36307.91;;;-138.15;83.34
20897;BME280;10608;42.600;23.398;2023-12-20T03:56:55;36298.09;;;-138.15;82.89
20897;BME280;10608;42.600;23.398;2023-12-20T03:59:20;36382.56;;;-138.15;82.78
20897;BME280;10608;42.600;23.398;2023-12-20T04:01:46;36337.38;;;-138.15;83.19
20897;BME280;10608;42.600;23.398;2023-12-20T04:04:12;36343.28;;;-138.15;83.60
20897;BME280;10608;42.600;23.398;2023-12-20T04:06:37;36333.44;;;-138.15;83.73
20897;BME280;10608;42.600;23.398;2023-12-20T04:09:03;36341.31;;;-138.15;83.67
20897;BME280;10608;42.600;23.398;2023-12-20T04:11:29;36392.38;;;-138.15;82.92
20897;BME280;10608;42.600;23.398;2023-12-20T04:13:54;36425.78;;;-138.15;82.49
20897;BME280;10608;42.600;23.398;2023-12-20T04:16:19;36349.16;;;-138.15;82.54
20897;BME280;10608;42.600;23.398;2023-12-20T04:18:45;36396.31;;;-138.15;82.89
20897;BME280;10608;42.600;23.398;2023-12-20T04:21:10;36388.44;;;-138.15;82.96
20897;BME280;10608;42.600;23.398;2023-12-20T04:23:36;36366.84;;;-138.15;83.60
20897;BME280;10608;42.600;23.398;2023-12-20T04:26:01;36402.19;;;-138.15;83.86
20897;BME280;10608;42.600;23.398;2023-12-20T04:28:26;36349.16;;;-138.15;83.53
20897;BME280;10608;42.600;23.398;2023-12-20T04:30:55;36419.88;;;-138.15;83.04
20897;BME280;10608;42.600;23.398;2023-12-20T04:33:20;36439.53;;;-138.15;82.95
20897;BME280;10608;42.600;23.398;2023-12-20T04:35:46;36410.06;;;-138.15;83.13
20897;BME280;10608;42.600;23.398;2023-12-20T04:38:11;36427.72;;;-138.15;83.23
20897;BME280;10608;42.600;23.398;2023-12-20T04:40:37;36423.81;;;-138.15;84.00
20897;BME280;10608;42.600;23.398;2023-12-20T04:43:02;36429.69;;;-138.15;84.29
20897;BME280;10608;42.600;23.398;2023-12-20T04:45:28;36392.38;;;-138.15;84.51
20897;BME280;10608;42.600;23.398;2023-12-20T04:47:53;36447.38;;;-138.15;84.84
20897;BME280;10608;42.600;23.398;2023-12-20T04:50:19;36374.69;;;-138.15;84.67
20897;BME280;10608;42.600;23.398;2023-12-20T04:52:45;36396.31;;;-138.15;84.97
20897;BME280;10608;42.600;23.398;2023-12-20T04:55:10;36384.53;;;-138.15;84.71
20897;BME280;10608;42.600;23.398;2023-12-20T04:57:35;36117.38;;;-138.15;84.64
20897;BME280;10608;42.600;23.398;2023-12-20T05:00:01;36406.13;;;-138.15;84.69
20897;BME280;10608;42.600;23.398;2023-12-20T05:02:26;36380.59;;;-138.15;85.23
20897;BME280;10608;42.600;23.398;2023-12-20T05:04:52;36419.88;;;-138.15;85.38
20897;BME280;10608;42.600;23.398;2023-12-20T05:07:18;36372.72;;;-138.15;85.78
20897;BME280;10608;42.600;23.398;2023-12-20T05:09:43;36388.44;;;-138.15;86.41
20897;BME280;10608;42.600;23.398;2023-12-20T05:12:09;36341.31;;;-138.15;87.15
20897;BME280;10608;42.600;23.398;2023-12-20T05:14:34;36311.84;;;-138.15;87.61
20897;BME280;10608;42.600;23.398;2023-12-20T05:16:59;36266.66;;;-138.15;88.82
20897;BME280;10608;42.600;23.398;2023-12-20T05:19:25;36262.72;;;-138.15;89.89
20897;BME280;10608;42.600;23.398;2023-12-20T05:21:51;36194.00;;;-138.15;90.69
20897;BME280;10608;42.600;23.398;2023-12-20T05:24:17;36188.09;;;-138.15;91.21
20897;BME280;10608;42.600;23.398;2023-12-20T05:26:42;36156.66;;;-138.15;91.29
20897;BME280;10608;42.600;23.398;2023-12-20T05:29:07;36117.38;;;-138.15;91.42
20897;BME280;10608;42.600;23.398;2023-12-20T05:31:33;36107.56;;;-138.15;91.36
20897;BME280;10608;42.600;23.398;2023-12-20T05:33:59;36119.34;;;-138.15;90.87
20897;BME280;10608;42.600;23.398;2023-12-20T05:36:24;36129.16;;;-138.15;90.83
20897;BME280;10608;42.600;23.398;2023-12-20T05:38:49;36129.16;;;-138.15;90.16
20897;BME280;10608;42.600;23.398;2023-12-20T05:41:15;36117.38;;;-138.15;89.96
20897;BME280;10608;42.600;23.398;2023-12-20T05:43:41;36152.75;;;-138.15;89.77
20897;BME280;10608;42.600;23.398;2023-12-20T05:46:06;36121.31;;;-138.15;90.33
20897;BME280;10608;42.600;23.398;2023-12-20T05:48:32;36109.53;;;-138.15;90.20
20897;BME280;10608;42.600;23.398;2023-12-20T05:50:57;36133.09;;;-138.15;89.97
20897;BME280;10608;42.600;23.398;2023-12-20T05:53:23;36162.56;;;-138.15;90.27
20897;BME280;10608;42.600;23.398;2023-12-20T05:55:48;36107.56;;;-138.15;89.69
20897;BME280;10608;42.600;23.398;2023-12-20T05:58:13;36209.69;;;-138.15;89.95
20897;BME280;10608;42.600;23.398;2023-12-20T06:00:39;36117.38;;;-138.15;89.83
20897;BME280;10608;42.600;23.398;2023-12-20T06:03:04;36125.25;;;-138.15;90.37
20897;BME280;10608;42.600;23.398;2023-12-20T06:05:30;36142.91;;;-138.15;90.39
20897;BME280;10608;42.600;23.398;2023-12-20T06:07:56;36113.47;;;-138.15;90.30
20897;BME280;10608;42.600;23.398;2023-12-20T06:10:26;36070.25;;;-138.15;90.34
20897;BME280;10608;42.600;23.398;2023-12-20T06:12:52;36117.38;;;-138.15;89.90
20897;BME280;10608;42.600;23.398;2023-12-20T06:15:17;36082.03;;;-138.15;89.50
20897;BME280;10608;42.600;23.398;2023-12-20T06:17:43;36097.75;;;-138.15;89.53
20897;BME280;10608;42.600;23.398;2023-12-20T06:20:08;36093.81;;;-138.15;89.62
20897;BME280;10608;42.600;23.398;2023-12-20T06:22:35;36133.09;;;-138.15;89.76
20897;BME280;10608;42.600;23.398;2023-12-20T06:25:01;36107.56;;;-138.15;90.34
20897;BME280;10608;42.600;23.398;2023-12-20T06:27:26;36119.34;;;-138.15;87.90
20897;BME280;10608;42.600;23.398;2023-12-20T06:29:52;36156.66;;;-138.15;84.09
20897;BME280;10608;42.600;23.398;2023-12-20T06:32:17;36294.16;;;-138.15;80.08
20897;BME280;10608;42.600;23.398;2023-12-20T06:34:42;36514.16;;;-138.15;75.09
20897;BME280;10608;42.600;23.398;2023-12-20T06:37:08;36822.59;;;-138.15;70.89
20897;BME280;10608;42.600;23.398;2023-12-20T06:39:33;37164.41;;;-138.15;67.04
20897;BME280;10608;42.600;23.398;2023-12-20T06:41:59;37457.16;;;-138.15;63.60
20897;BME280;10608;42.600;23.398;2023-12-20T06:44:25;37779.41;;;-138.15;61.20
20897;BME280;10608;42.600;23.398;2023-12-20T06:46:50;37848.19;;;-138.15;61.76
20897;BME280;10608;42.600;23.398;2023-12-20T06:49:15;37952.34;;;-138.15;59.53
20897;BME280;10608;42.600;23.398;2023-12-20T06:51:41;38166.53;;;-138.15;57.69
20897;BME280;10608;42.600;23.398;2023-12-20T06:54:06;38311.97;;;-138.15;54.58
20897;BME280;10608;42.600;23.398;2023-12-20T06:56:32;38655.91;;;-138.15;52.39
20897;BME280;10608;42.600;23.398;2023-12-20T06:58:57;38905.50;;;-138.15;50.61
20897;BME280;10608;42.600;23.398;2023-12-20T07:01:23;38993.97;;;-138.15;49.67
20897;BME280;10608;42.600;23.398;2023-12-20T07:03:48;39208.22;;;-138.15;48.14
20897;BME280;10608;42.600;23.398;2023-12-20T07:06:14;39296.66;;;-138.15;47.91
20897;BME280;10608;42.600;23.398;2023-12-20T07:08:41;39422.47;;;-138.15;45.89
20897;BME280;10608;42.600;23.398;2023-12-20T07:11:07;39575.81;;;-138.15;44.88
20897;BME280;10608;42.600;23.398;2023-12-20T07:13:32;39762.59;;;-138.15;43.06
20897;BME280;10608;42.600;23.398;2023-12-20T07:15:58;39882.50;;;-138.15;41.41
20897;BME280;10608;42.600;23.398;2023-12-20T07:18:23;40081.09;;;-138.15;38.85
20897;BME280;10608;42.600;23.398;2023-12-20T07:20:49;40417.31;;;-138.15;38.50
20897;BME280;10608;42.600;23.398;2023-12-20T07:23:14;40525.47;;;-138.15;37.25
20897;BME280;10608;42.600;23.398;2023-12-20T07:25:39;40604.09;;;-138.15;36.85
20897;BME280;10608;42.600;23.398;2023-12-20T07:28:05;40851.88;;;-138.15;38.01
20897;BME280;10608;42.600;23.398;2023-12-20T07:30:30;40946.28;;;-138.15;40.03
20897;BME280;10608;42.600;23.398;2023-12-20T07:32:56;40889.25;;;-138.15;40.42
20897;BME280;10608;42.600;23.398;2023-12-20T07:35:23;40934.47;;;-138.15;39.78
20897;BME280;10608;42.600;23.398;2023-12-20T07:37:48;41022.97;;;-138.15;43.48
20897;BME280;10608;42.600;23.398;2023-12-20T07:40:13;41003.31;;;-138.15;45.55
20897;BME280;10608;42.600;23.398;2023-12-20T07:42:39;40987.56;;;-138.15;48.20
20897;BME280;10608;42.600;23.398;2023-12-20T07:45:05;40901.03;;;-138.15;49.39
20897;BME280;10608;42.600;23.398;2023-12-20T07:47:30;40838.13;;;-138.15;50.67
20897;BME280;10608;42.600;23.398;2023-12-20T07:49:56;40785.03;;;-138.15;51.55
20897;BME280;10608;42.600;23.398;2023-12-20T07:52:21;40672.94;;;-138.15;52.44
20897;BME280;10608;42.600;23.398;2023-12-20T07:54:49;40586.41;;;-138.15;53.28
20897;BME280;10608;42.600;23.398;2023-12-20T07:57:14;40578.53;;;-138.15;51.93
20897;BME280;10608;42.600;23.398;2023-12-20T07:59:40;40552.97;;;-138.15;51.67
20897;BME280;10608;42.600;23.398;2023-12-20T08:02:05;40554.94;;;-138.15;51.53
20897;BME280;10608;42.600;23.398;2023-12-20T08:04:31;40462.53;;;-138.15;50.78
20897;BME280;10608;42.600;23.398;2023-12-20T08:06:57;40470.41;;;-138.15;47.71
20897;BME280;10608;42.600;23.398;2023-12-20T08:09:23;40265.91;;;-138.15;42.47
20897;BME280;10608;42.600;23.398;2023-12-20T08:11:48;40505.78;;;-138.15;36.75
20897;BME280;10608;42.600;23.398;2023-12-20T08:14:15;40940.38;;;-138.15;32.88
20897;BME280;10608;42.600;23.398;2023-12-20T08:16:41;41947.38;;;-138.15;30.93
20897;BME280;10608;42.600;23.398;2023-12-20T08:19:06;42915.31;;;-138.15;29.83
20897;BME280;10608;42.600;23.398;2023-12-20T08:21:32;43485.94;;;-138.15;30.00
20897;BME280;10608;42.600;23.398;2023-12-20T08:23:57;43928.72;;;-138.15;30.89
20897;BME280;10608;42.600;23.398;2023-12-20T08:26:22;44190.50;;;-138.15;32.24
20897;BME280;10608;42.600;23.398;2023-12-20T08:28:49;44214.09;;;-138.15;33.86
20897;BME280;10608;42.600;23.398;2023-12-20T08:31:16;44403.06;;;-138.15;35.67
20897;BME280;10608;42.600;23.398;2023-12-20T08:33:43;44361.72;;;-138.15;36.92
20897;BME280;10608;42.600;23.398;2023-12-20T08:36:09;44290.88;;;-138.15;37.25
20897;BME280;10608;42.600;23.398;2023-12-20T08:38:35;44273.16;;;-138.15;37.94
20897;BME280;10608;42.600;23.398;2023-12-20T08:41:01;44247.56;;;-138.15;38.32
20897;BME280;10608;42.600;23.398;2023-12-20T08:43:28;44261.34;;;-138.15;39.05
20897;BME280;10608;42.600;23.398;2023-12-20T08:45:54;44210.16;;;-138.15;40.21
20897;BME280;10608;42.600;23.398;2023-12-20T08:48:19;44068.47;;;-138.15;41.34
20897;BME280;10608;42.600;23.398;2023-12-20T08:50:44;43958.25;;;-138.15;41.54
20897;BME280;10608;42.600;23.398;2023-12-20T08:53:11;43981.88;;;-138.15;40.91
20897;BME280;10608;42.600;23.398;2023-12-20T08:55:36;43912.97;;;-138.15;41.93
20897;BME280;10608;42.600;23.398;2023-12-20T08:58:02;43875.59;;;-138.15;43.04
20897;BME280;10608;42.600;23.398;2023-12-20T09:00:27;43678.78;;;-138.15;44.54
20897;BME280;10608;42.600;23.398;2023-12-20T11:11:37;42474.59;;;-138.15;38.98
20897;BME280;10608;42.600;23.398;2023-12-20T11:14:07;42608.38;;;-138.15;40.78
20897;BME280;10608;42.600;23.398;2023-12-20T11:16:37;42586.75;;;-138.15;42.04
20897;BME280;10608;42.600;23.398;2023-12-20T11:19:06;42567.06;;;-138.15;41.56
20897;BME280;10608;42.600;23.398;2023-12-20T11:21:31;42515.91;;;-138.15;41.44
20897;BME280;10608;42.600;23.398;2023-12-20T11:23:57;42541.50;;;-138.15;42.72
20897;BME280;10608;42.600;23.398;2023-12-20T11:26:27;42671.34;;;-138.15;46.06
20897;BME280;10608;42.600;23.398;2023-12-20T11:28:53;42572.97;;;-138.15;48.66
20897;BME280;10608;42.600;23.398;2023-12-20T11:31:19;42354.59;;;-138.15;53.37
20897;BME280;10608;42.600;23.398;2023-12-20T11:33:45;42053.63;;;-138.15;54.63
20897;BME280;10608;42.600;23.398;2023-12-20T11:36:14;41939.53;;;-138.15;54.33
20897;BME280;10608;42.600;23.398;2023-12-20T11:38:56;41860.84;;;-138.15;53.23
20897;BME280;10608;42.600;23.398;2023-12-20T11:41:23;41849.03;;;-138.15;53.14
20897;BME280;10608;42.600;23.398;2023-12-20T11:43:55;41831.34;;;-138.15;53.07
20897;BME280;10608;42.600;23.398;2023-12-20T11:46:21;41793.97;;;-138.15;53.41
20897;BME280;10608;42.600;23.398;2023-12-20T11:48:48;41760.53;;;-138.15;53.58
20897;BME280;10608;42.600;23.398;2023-12-20T11:51:13;41738.88;;;-138.15;54.32
20897;BME280;10608;42.600;23.398;2023-12-20T11:53:40;41664.13;;;-138.15;55.00
20897;BME280;10608;42.600;23.398;2023-12-20T11:56:06;41634.63;;;-138.15;53.88
20897;BME280;10608;42.600;23.398;2023-12-20T11:58:32;41675.94;;;-138.15;54.26
20897;BME280;10608;42.600;23.398;2023-12-20T12:00:58;41567.75;;;-138.15;54.54
20897;BME280;10608;42.600;23.398;2023-12-20T12:03:24;41634.63;;;-138.15;54.58
20897;BME280;10608;42.600;23.398;2023-12-20T12:05:49;41583.50;;;-138.15;55.88
20897;BME280;10608;42.600;23.398;2023-12-20T12:08:16;41538.25;;;-138.15;54.62
20897;BME280;10608;42.600;23.398;2023-12-20T12:10:43;41569.72;;;-138.15;55.33
20897;BME280;10608;42.600;23.398;2023-12-20T12:13:09;41526.47;;;-138.15;54.14
20897;BME280;10608;42.600;23.398;2023-12-20T12:15:35;41514.66;;;-138.15;53.98
20897;BME280;10608;42.600;23.398;2023-12-20T12:18:01;41526.47;;;-138.15;52.20
20897;BME280;10608;42.600;23.398;2023-12-20T12:20:26;41583.50;;;-138.15;53.34
20897;BME280;10608;42.600;23.398;2023-12-20T12:23:04;41506.78;;;-138.15;53.69
20897;BME280;10608;42.600;23.398;2023-12-20T12:25:31;41526.47;;;-138.15;53.44
20897;BME280;10608;42.600;23.398;2023-12-20T12:28:01;41504.81;;;-138.15;54.20
20897;BME280;10608;42.600;23.398;2023-12-20T12:30:27;41495.00;;;-138.15;53.23
20897;BME280;10608;42.600;23.398;2023-12-20T12:32:52;41443.84;;;-138.15;54.07
20897;BME280;10608;42.600;23.398;2023-12-20T12:35:18;41430.09;;;-138.15;54.19
20897;BME280;10608;42.600;23.398;2023-12-20T12:37:44;41432.06;;;-138.15;54.77
20897;BME280;10608;42.600;23.398;2023-12-20T12:40:11;41392.72;;;-138.15;54.67
20897;BME280;10608;42.600;23.398;2023-12-20T12:42:37;41430.09;;;-138.15;54.50
20897;BME280;10608;42.600;23.398;2023-12-20T12:45:03;41380.91;;;-138.15;54.79
20897;BME280;10608;42.600;23.398;2023-12-20T12:47:29;41392.72;;;-138.15;54.94
20897;BME280;10608;42.600;23.398;2023-12-20T12:49:55;41388.78;;;-138.15;54.76
20897;BME280;10608;42.600;23.398;2023-12-20T12:52:21;41349.44;;;-138.15;54.73
20897;BME280;10608;42.600;23.398;2023-12-20T12:54:46;41371.09;;;-138.15;54.73
20897;BME280;10608;42.600;23.398;2023-12-20T12:57:14;41369.13;;;-138.15;54.17
20897;BME280;10608;42.600;23.398;2023-12-20T12:59:40;41349.44;;;-138.15;53.77
20897;BME280;10608;42.600;23.398;2023-12-20T13:02:06;41357.31;;;-138.15;54.31
20897;BME280;10608;42.600;23.398;2023-12-20T13:04:31;41335.69;;;-138.15;54.72
20897;BME280;10608;42.600;23.398;2023-12-20T13:06:57;41367.16;;;-138.15;55.18
20897;BME280;10608;42.600;23.398;2023-12-20T13:09:22;41361.25;;;-138.15;55.14
20897;BME280;10608;42.600;23.398;2023-12-20T13:11:48;41351.41;;;-138.15;55.34
20897;BME280;10608;42.600;23.398;2023-12-20T13:14:13;41357.31;;;-138.15;55.60
20897;BME280;10608;42.600;23.398;2023-12-20T13:16:41;41375.00;;;-138.15;56.04
20897;BME280;10608;42.600;23.398;2023-12-20T13:19:07;41314.03;;;-138.15;57.28
20897;BME280;10608;42.600;23.398;2023-12-20T13:21:32;41329.78;;;-138.15;58.10
20897;BME280;10608;42.600;23.398;2023-12-20T13:23:58;41331.75;;;-138.15;59.26
20897;BME280;10608;42.600;23.398;2023-12-20T13:26:23;41321.91;;;-138.15;59.27
20897;BME280;10608;42.600;23.398;2023-12-20T13:28:48;41341.56;;;-138.15;59.18
20897;BME280;10608;42.600;23.398;2023-12-20T13:31:14;41316.00;;;-138.15;59.63
20897;BME280;10608;42.600;23.398;2023-12-20T13:33:39;41286.50;;;-138.15;60.70
20897;BME280;10608;42.600;23.398;2023-12-20T13:36:05;41290.44;;;-138.15;62.93
20897;BME280;10608;42.600;23.398;2023-12-20T13:38:31;41235.38;;;-138.15;64.28
20897;BME280;10608;42.600;23.398;2023-12-20T13:40:56;41154.75;;;-138.15;65.46
20897;BME280;10608;42.600;23.398;2023-12-20T13:43:23;41113.44;;;-138.15;66.27
20897;BME280;10608;42.600;23.398;2023-12-20T13:45:49;41034.78;;;-138.15;66.18
20897;BME280;10608;42.600;23.398;2023-12-20T13:48:15;41011.19;;;-138.15;66.61
20897;BME280;10608;42.600;23.398;2023-12-20T13:50:41;40999.38;;;-138.15;66.71
20897;BME280;10608;42.600;23.398;2023-12-20T13:53:06;40954.16;;;-138.15;67.38
20897;BME280;10608;42.600;23.398;2023-12-20T13:55:32;40865.66;;;-138.15;67.90
20897;BME280;10608;42.600;23.398;2023-12-20T13:57:57;40867.63;;;-138.15;66.72
20897;BME280;10608;42.600;23.398;2023-12-20T14:00:23;40812.56;;;-138.15;65.47
20897;BME280;10608;42.600;23.398;2023-12-20T14:02:49;40810.59;;;-138.15;65.63
20897;BME280;10608;42.600;23.398;2023-12-20T14:05:15;40798.78;;;-138.15;66.31
20897;BME280;10608;42.600;23.398;2023-12-20T14:07:43;40804.69;;;-138.15;66.97
20897;BME280;10608;42.600;23.398;2023-12-20T14:10:13;40755.53;;;-138.15;67.26
20897;BME280;10608;42.600;23.398;2023-12-20T14:12:39;40731.94;;;-138.15;67.07
20897;BME280;10608;42.600;23.398;2023-12-20T14:15:05;40690.63;;;-138.15;67.33
20897;BME280;10608;42.600;23.398;2023-12-20T14:17:39;40684.72;;;-138.15;66.55
20897;BME280;10608;42.600;23.398;2023-12-20T14:20:06;40637.53;;;-138.15;67.34
20897;BME280;10608;42.600;23.398;2023-12-20T14:22:32;40645.41;;;-138.15;67.04
20897;BME280;10608;42.600;23.398;2023-12-20T14:24:57;40639.50;;;-138.15;67.93
20897;BME280;10608;42.600;23.398;2023-12-20T14:27:23;40586.41;;;-138.15;68.13
20897;BME280;10608;42.600;23.398;2023-12-20T14:29:50;40578.53;;;-138.15;67.85
20897;BME280;10608;42.600;23.398;2023-12-20T14:32:15;40570.69;;;-138.15;67.71
20897;BME280;10608;42.600;23.398;2023-12-20T14:34:41;40560.84;;;-138.15;68.05
20897;BME280;10608;42.600;23.398;2023-12-20T14:37:07;40541.19;;;-138.15;67.99
20897;BME280;10608;42.600;23.398;2023-12-20T14:39:32;40554.94;;;-138.15;68.82
20897;BME280;10608;42.600;23.398;2023-12-20T14:41:58;40527.41;;;-138.15;69.28
20897;BME280;10608;42.600;23.398;2023-12-20T14:44:23;40517.59;;;-138.15;69.29
20897;BME280;10608;42.600;23.398;2023-12-20T14:46:50;40497.94;;;-138.15;68.35
20897;BME280;10608;42.600;23.398;2023-12-20T14:49:16;40513.66;;;-138.15;68.25
20897;BME280;10608;42.600;23.398;2023-12-20T14:51:44;40488.09;;;-138.15;68.03